Time;durP1;ratioP1;P1;durP2;ratioP2;P2;SDS_P1;SDS_P2;PMS_P1;PMS_P2;Temp;Humidity;BMP_temperature;BMP_pressure;BME280_temperature;BME280_humidity;BME280_pressure;Samples;Min_cycle;Max_cycle;Signal;HPM_P1;HPM_P2
2022/03/20 00:00:28;;;;;;;18.52;8.65;;;;;;;;;;5071165;28;20031;-64
2022/03/20 00:02:57;;;;;;;13.05;7.05;;;;;;;;;;5071024;28;20029;-56
2022/03/20 00:05:23;;;;;;;17.65;9.50;;;;;;;;;;5071216;28;20032;-51
2022/03/20 00:07:49;;;;;;;18.98;8.98;;;;;;;;;;5070985;28;20039;-50
2022/03/20 00:10:15;;;;;;;18.02;8.35;;;;;;;;;;5071496;28;20025;-51
2022/03/20 00:12:41;;;;;;;16.38;8.48;;;;;;;;;;5070851;28;20035;-50
2022/03/20 00:15:08;;;;;;;18.98;7.35;;;;;;;;;;5071088;28;20039;-50
2022/03/20 00:17:34;;;;;;;8.60;5.43;;;;;;;;;;5070401;28;20507;-58
2022/03/20 00:19:59;;;;;;;12.80;7.60;;;;;;;;;;5070672;28;20107;-48
2022/03/20 00:22:25;;;;;;;12.32;5.80;;;;;;;;;;5071130;28;20038;-49
2022/03/20 00:24:51;;;;;;;17.17;8.50;;;;;;;;;;5071177;28;20040;-56
2022/03/20 00:27:17;;;;;;;10.82;5.95;;;;;;;;;;5069624;28;20353;-49
2022/03/20 00:29:43;;;;;;;13.18;7.75;;;;;;;;;;5071058;28;20099;-49
2022/03/20 00:32:12;;;;;;;7.43;4.75;;;;;;;;;;5071139;28;20047;-50
2022/03/20 00:34:39;;;;;;;14.90;8.32;;;;;;;;;;5070643;28;20066;-52
2022/03/20 00:37:06;;;;;;;19.90;8.95;;;;;;;;;;5071290;28;20082;-58
2022/03/20 00:39:32;;;;;;;18.90;8.55;;;;;;;;;;5072691;28;20016;-53
2022/03/20 00:41:58;;;;;;;12.00;7.15;;;;;;;;;;5072307;28;20063;-51
2022/03/20 00:44:23;;;;;;;17.05;8.93;;;;;;;;;;5072191;28;20045;-56
2022/03/20 00:46:49;;;;;;;20.70;9.05;;;;;;;;;;5072260;28;20040;-52
2022/03/20 00:49:15;;;;;;;21.80;10.35;;;;;;;;;;5072197;28;20107;-55
2022/03/20 00:51:42;;;;;;;24.70;11.00;;;;;;;;;;5072333;28;20486;-50
2022/03/20 00:54:07;;;;;;;26.20;11.35;;;;;;;;;;5072409;28;20035;-50
2022/03/20 00:56:32;;;;;;;22.88;11.55;;;;;;;;;;5072388;28;20024;-51
2022/03/20 00:58:58;;;;;;;27.80;11.82;;;;;;;;;;5070860;28;20027;-50
2022/03/20 01:01:23;;;;;;;29.15;12.27;;;;;;;;;;5054198;28;20111;-50
2022/03/20 01:03:49;;;;;;;25.23;10.93;;;;;;;;;;5072040;28;20028;-57
2022/03/20 01:06:17;;;;;;;16.55;7.22;;;;;;;;;;5072172;28;20016;-50
2022/03/20 01:08:43;;;;;;;14.45;7.80;;;;;;;;;;5070871;28;20463;-50
2022/03/20 01:11:10;;;;;;;22.83;9.90;;;;;;;;;;5072271;28;20025;-50
2022/03/20 01:13:36;;;;;;;23.58;10.45;;;;;;;;;;5071938;28;20021;-50
2022/03/20 01:16:02;;;;;;;28.63;13.07;;;;;;;;;;5072307;28;20376;-50
2022/03/20 01:18:27;;;;;;;26.63;12.18;;;;;;;;;;5072234;28;20089;-52
2022/03/20 01:20:54;;;;;;;26.02;11.65;;;;;;;;;;5072151;28;20535;-54
2022/03/20 01:23:21;;;;;;;19.02;10.25;;;;;;;;;;5054041;28;20357;-52
2022/03/20 01:25:47;;;;;;;25.02;11.90;;;;;;;;;;5072174;28;20055;-51
2022/03/20 01:28:14;;;;;;;24.77;11.18;;;;;;;;;;5072202;28;20029;-52
2022/03/20 01:30:39;;;;;;;23.05;9.55;;;;;;;;;;5071897;28;20031;-54
2022/03/20 01:33:05;;;;;;;17.17;9.85;;;;;;;;;;5071699;28;20025;-50
2022/03/20 01:35:30;;;;;;;26.55;10.70;;;;;;;;;;5072149;28;20032;-50
2022/03/20 01:37:56;;;;;;;27.98;10.93;;;;;;;;;;5071767;28;20388;-50
2022/03/20 01:40:22;;;;;;;16.92;9.50;;;;;;;;;;5071241;28;20063;-50
2022/03/20 01:42:48;;;;;;;18.83;8.93;;;;;;;;;;5072006;28;20052;-49
2022/03/20 01:45:15;;;;;;;27.23;10.77;;;;;;;;;;5071577;28;20503;-51
2022/03/20 01:47:41;;;;;;;21.10;10.43;;;;;;;;;;5072096;28;20025;-50
2022/03/20 01:50:07;;;;;;;24.67;11.15;;;;;;;;;;5075296;28;20173;-51
2022/03/20 01:52:33;;;;;;;20.00;9.68;;;;;;;;;;5075448;28;20024;-50
2022/03/20 01:54:58;;;;;;;20.98;10.25;;;;;;;;;;5075285;28;20047;-51
2022/03/20 01:57:24;;;;;;;17.33;8.75;;;;;;;;;;5075192;28;20471;-49
2022/03/20 01:59:51;;;;;;;20.38;11.55;;;;;;;;;;5075085;28;20021;-50
2022/03/20 02:02:18;;;;;;;22.85;10.60;;;;;;;;;;5075042;28;20028;-58
2022/03/20 02:04:43;;;;;;;25.38;11.60;;;;;;;;;;5073711;28;20062;-52
2022/03/20 02:07:09;;;;;;;24.65;11.70;;;;;;;;;;5073856;28;20025;-50
2022/03/20 02:09:39;;;;;;;24.60;11.40;;;;;;;;;;5073475;28;20372;-53
2022/03/20 02:12:05;;;;;;;18.20;10.48;;;;;;;;;;5075033;28;20094;-51
2022/03/20 02:14:33;;;;;;;24.38;12.13;;;;;;;;;;5075049;28;20064;-51
2022/03/20 02:16:59;;;;;;;18.52;10.30;;;;;;;;;;5074752;28;20021;-51
2022/03/20 02:19:25;;;;;;;24.48;10.68;;;;;;;;;;5074808;28;20214;-51
2022/03/20 02:21:51;;;;;;;21.50;11.23;;;;;;;;;;5075100;28;20082;-52
2022/03/20 02:24:38;;;;;;;17.20;9.80;;;;;;;;;;5074822;28;20024;-49
2022/03/20 02:27:20;;;;;;;17.55;7.53;;;;;;;;;;5074773;28;20017;-50
2022/03/20 02:29:53;;;;;;;15.30;7.55;;;;;;;;;;5074585;28;20434;-50
2022/03/20 02:32:23;;;;;;;16.85;9.55;;;;;;;;;;5074723;28;20100;-52
2022/03/20 02:34:50;;;;;;;20.83;9.40;;;;;;;;;;5074857;28;20102;-51
2022/03/20 02:37:21;;;;;;;18.95;8.73;;;;;;;;;;5074641;28;20375;-50
2022/03/20 02:39:47;;;;;;;11.60;5.25;;;;;;;;;;5074407;28;20061;-50
2022/03/20 02:42:15;;;;;;;19.58;7.53;;;;;;;;;;5074422;28;20029;-50
2022/03/20 02:44:49;;;;;;;13.52;6.72;;;;;;;;;;5074351;28;20053;-49
2022/03/20 02:47:15;;;;;;;10.80;4.63;;;;;;;;;;5074446;28;20033;-50
2022/03/20 02:49:41;;;;;;;13.07;6.97;;;;;;;;;;5074533;28;20039;-50
2022/03/20 02:52:07;;;;;;;9.00;4.97;;;;;;;;;;5074550;28;20021;-52
2022/03/20 02:54:33;;;;;;;5.70;4.55;;;;;;;;;;5074154;28;20029;-51
2022/03/20 02:57:04;;;;;;;7.63;5.50;;;;;;;;;;5074183;28;20028;-51
2022/03/20 02:59:30;;;;;;;12.98;6.72;;;;;;;;;;5073459;28;20475;-50
2022/03/20 03:01:56;;;;;;;12.75;6.32;;;;;;;;;;5073916;28;20073;-51
2022/03/20 03:04:23;;;;;;;16.10;9.07;;;;;;;;;;5074241;28;20100;-50
2022/03/20 03:06:48;;;;;;;21.98;9.98;;;;;;;;;;5073992;28;20020;-52
2022/03/20 03:11:58;;;;;;;26.60;9.23;;;;;;;;;;5073918;28;20032;-53
2022/03/20 03:17:07;;;;;;;8.68;5.82;;;;;;;;;;5073803;28;20112;-50
2022/03/20 03:19:33;;;;;;;16.48;8.27;;;;;;;;;;5073671;28;20459;-52
2022/03/20 03:22:03;;;;;;;17.63;8.02;;;;;;;;;;5073591;28;20418;-52
2022/03/20 03:24:28;;;;;;;17.08;8.60;;;;;;;;;;5073491;28;20589;-50
2022/03/20 03:26:54;;;;;;;13.93;8.50;;;;;;;;;;5073792;28;20028;-50
2022/03/20 03:29:19;;;;;;;16.92;7.95;;;;;;;;;;5055531;28;20056;-50
2022/03/20 03:31:45;;;;;;;23.52;11.25;;;;;;;;;;5073359;28;20031;-51
2022/03/20 03:36:55;;;;;;;16.48;8.20;;;;;;;;;;5073650;28;20042;-53
2022/03/20 03:39:22;;;;;;;13.88;7.28;;;;;;;;;;5073238;28;20387;-53
2022/03/20 03:41:50;;;;;;;13.07;7.80;;;;;;;;;;5073229;28;20099;-51
2022/03/20 03:44:17;;;;;;;11.82;6.75;;;;;;;;;;5051745;28;20053;-51
2022/03/20 03:46:42;;;;;;;9.18;5.35;;;;;;;;;;5053132;28;20033;-51
2022/03/20 03:49:07;;;;;;;7.97;5.43;;;;;;;;;;5053369;28;20091;-52
2022/03/20 03:51:33;;;;;;;14.40;6.75;;;;;;;;;;5053141;28;20447;-51
2022/03/20 03:53:59;;;;;;;10.35;6.25;;;;;;;;;;5053284;28;20033;-50
2022/03/20 03:56:24;;;;;;;20.20;6.65;;;;;;;;;;5052965;28;20036;-51
2022/03/20 03:58:50;;;;;;;12.77;6.88;;;;;;;;;;5053016;28;20283;-51
2022/03/20 04:01:15;;;;;;;13.85;5.47;;;;;;;;;;5052970;28;20025;-50
2022/03/20 04:03:41;;;;;;;9.98;5.45;;;;;;;;;;5052951;28;20108;-50
2022/03/20 04:06:08;;;;;;;17.90;9.00;;;;;;;;;;5052862;28;20398;-51
2022/03/20 04:08:34;;;;;;;12.60;6.55;;;;;;;;;;5052896;28;20025;-50
2022/03/20 04:11:01;;;;;;;9.40;6.82;;;;;;;;;;5052839;28;20124;-50
2022/03/20 04:13:26;;;;;;;11.07;6.03;;;;;;;;;;5052653;28;20021;-50
2022/03/20 04:15:52;;;;;;;8.85;5.53;;;;;;;;;;5052972;28;20028;-50
2022/03/20 04:18:18;;;;;;;13.93;7.35;;;;;;;;;;5052882;28;20020;-51
2022/03/20 04:20:44;;;;;;;20.80;10.18;;;;;;;;;;5052857;28;20025;-50
2022/03/20 04:25:54;;;;;;;9.13;4.32;;;;;;;;;;5052882;28;20159;-50
2022/03/20 04:28:21;;;;;;;10.90;7.15;;;;;;;;;;5052602;28;20104;-50
2022/03/20 04:30:48;;;;;;;18.10;10.57;;;;;;;;;;5052707;28;20131;-51
2022/03/20 04:33:14;;;;;;;9.57;6.15;;;;;;;;;;5052425;28;20039;-50
2022/03/20 04:35:39;;;;;;;10.38;5.60;;;;;;;;;;5052529;28;20029;-50
2022/03/20 04:38:05;;;;;;;14.27;8.13;;;;;;;;;;5052663;28;20033;-50
2022/03/20 04:40:31;;;;;;;14.90;8.00;;;;;;;;;;5052388;28;20059;-51
2022/03/20 04:42:56;;;;;;;15.55;9.43;;;;;;;;;;5052688;28;20387;-50
2022/03/20 04:45:22;;;;;;;17.60;8.85;;;;;;;;;;5065916;28;20051;-50
2022/03/20 04:58:43;;;;;;;7.53;4.63;;;;;;;;;;5072246;28;20040;-50
2022/03/20 05:01:09;;;;;;;22.30;9.98;;;;;;;;;;5072147;28;20072;-54
2022/03/20 05:03:35;;;;;;;10.60;5.55;;;;;;;;;;5072064;28;20031;-52
2022/03/20 05:06:03;;;;;;;14.80;8.88;;;;;;;;;;5072064;28;20024;-52
2022/03/20 05:08:28;;;;;;;14.05;6.88;;;;;;;;;;5072169;28;20096;-50
2022/03/20 05:13:38;;;;;;;19.98;10.60;;;;;;;;;;5072217;28;20040;-49
2022/03/20 05:16:04;;;;;;;21.27;11.00;;;;;;;;;;5072318;28;20024;-49
2022/03/20 05:18:32;;;;;;;27.80;14.07;;;;;;;;;;5072266;28;20384;-50
2022/03/20 05:20:58;;;;;;;16.98;8.52;;;;;;;;;;5072029;28;20027;-55
2022/03/20 05:23:23;;;;;;;20.05;10.40;;;;;;;;;;5073586;28;20111;-50
2022/03/20 05:25:49;;;;;;;13.05;8.13;;;;;;;;;;5076132;28;20100;-51
2022/03/20 05:28:15;;;;;;;29.27;13.05;;;;;;;;;;5075810;28;20052;-51
2022/03/20 05:30:42;;;;;;;17.45;7.90;;;;;;;;;;5075698;28;20553;-49
2022/03/20 05:33:10;;;;;;;10.70;5.50;;;;;;;;;;5075914;28;20059;-49
2022/03/20 05:35:37;;;;;;;12.57;7.22;;;;;;;;;;5075834;28;20032;-49
2022/03/20 05:38:02;;;;;;;8.45;5.93;;;;;;;;;;5057909;28;20479;-51
2022/03/20 05:40:28;;;;;;;7.10;4.22;;;;;;;;;;5075538;28;20036;-49
2022/03/20 05:42:54;;;;;;;8.63;6.25;;;;;;;;;;5075483;28;20064;-49
2022/03/20 05:45:20;;;;;;;14.02;7.35;;;;;;;;;;5057414;28;20048;-49
2022/03/20 05:47:45;;;;;;;18.02;9.52;;;;;;;;;;5075505;28;20027;-50
2022/03/20 05:50:11;;;;;;;16.23;7.70;;;;;;;;;;5075708;28;20036;-51
2022/03/20 05:52:37;;;;;;;18.88;7.32;;;;;;;;;;5075569;28;20037;-50
2022/03/20 05:55:04;;;;;;;11.88;7.38;;;;;;;;;;5075432;28;20028;-49
2022/03/20 06:00:24;;;;;;;10.90;6.30;;;;;;;;;;5075529;28;20036;-50
2022/03/20 06:02:50;;;;;;;15.60;8.40;;;;;;;;;;5075472;28;20025;-50
2022/03/20 06:05:16;;;;;;;15.63;9.38;;;;;;;;;;5075140;28;20069;-50
2022/03/20 06:07:44;;;;;;;15.40;6.93;;;;;;;;;;5075405;28;20059;-49
2022/03/20 06:10:11;;;;;;;14.73;8.48;;;;;;;;;;5075056;28;20406;-50
2022/03/20 06:12:37;;;;;;;18.30;8.93;;;;;;;;;;5075053;28;20028;-52
2022/03/20 06:15:03;;;;;;;17.70;10.48;;;;;;;;;;5074968;28;20024;-50
2022/03/20 06:17:29;;;;;;;12.07;8.60;;;;;;;;;;5074940;28;20021;-49
2022/03/20 06:19:55;;;;;;;16.40;7.95;;;;;;;;;;5075062;28;20040;-52
2022/03/20 06:22:21;;;;;;;10.73;6.10;;;;;;;;;;5075013;28;20032;-49
2022/03/20 06:24:46;;;;;;;14.30;7.28;;;;;;;;;;5074981;28;20028;-50
2022/03/20 06:27:12;;;;;;;17.55;9.10;;;;;;;;;;5074682;28;20025;-49
2022/03/20 06:29:37;;;;;;;11.75;6.13;;;;;;;;;;5074935;28;20024;-49
2022/03/20 06:32:03;;;;;;;19.45;8.73;;;;;;;;;;5074505;28;20060;-50
2022/03/20 06:34:29;;;;;;;12.48;7.93;;;;;;;;;;5073561;28;20039;-49
2022/03/20 06:36:57;;;;;;;13.25;7.93;;;;;;;;;;5074739;28;20460;-50
2022/03/20 06:39:24;;;;;;;15.38;7.75;;;;;;;;;;5074520;28;20024;-52
2022/03/20 06:41:49;;;;;;;19.92;8.80;;;;;;;;;;5074476;28;20025;-49
2022/03/20 06:44:17;;;;;;;11.23;7.20;;;;;;;;;;5074142;28;20179;-49
2022/03/20 06:46:43;;;;;;;15.55;7.70;;;;;;;;;;5074472;28;20065;-49
2022/03/20 06:49:10;;;;;;;15.20;9.18;;;;;;;;;;5074309;28;20016;-51
2022/03/20 06:51:36;;;;;;;16.25;8.45;;;;;;;;;;5074511;28;20032;-49
2022/03/20 06:54:02;;;;;;;14.88;8.77;;;;;;;;;;5073189;28;20028;-48
2022/03/20 06:56:28;;;;;;;14.70;7.97;;;;;;;;;;5074123;28;20379;-49
2022/03/20 06:58:54;;;;;;;18.08;7.65;;;;;;;;;;5074389;28;20029;-50
2022/03/20 07:01:20;;;;;;;15.00;8.32;;;;;;;;;;5074094;28;20036;-49
2022/03/20 07:03:45;;;;;;;15.60;8.05;;;;;;;;;;5074305;28;20032;-64
2022/03/20 07:06:11;;;;;;;10.70;6.60;;;;;;;;;;5056078;28;20464;-51
2022/03/20 07:08:37;;;;;;;22.20;8.05;;;;;;;;;;5073957;28;20031;-49
2022/03/20 07:11:03;;;;;;;10.43;7.22;;;;;;;;;;5073710;28;20020;-64
2022/03/20 07:16:14;;;;;;;10.70;6.32;;;;;;;;;;5073998;28;20027;-57
2022/03/20 07:18:40;;;;;;;14.88;6.78;;;;;;;;;;5073830;28;20028;-64
2022/03/20 07:21:06;;;;;;;9.80;5.82;;;;;;;;;;5073675;28;20028;-55
2022/03/20 07:23:32;;;;;;;9.05;5.80;;;;;;;;;;5073701;28;20028;-51
2022/03/20 07:31:27;;;;;;;7.22;4.78;;;;;;;;;;5073779;28;20034;-64
2022/03/20 07:33:52;;;;;;;8.65;5.50;;;;;;;;;;5073364;28;20111;-65
2022/03/20 07:36:19;;;;;;;6.70;5.03;;;;;;;;;;5073662;28;20096;-50
2022/03/20 07:38:45;;;;;;;11.82;5.75;;;;;;;;;;5073499;28;20035;-58
2022/03/20 07:41:11;;;;;;;5.90;3.42;;;;;;;;;;5073195;28;20036;-63
2022/03/20 07:43:37;;;;;;;7.38;4.35;;;;;;;;;;5073239;28;20032;-63
2022/03/20 07:46:02;;;;;;;9.52;5.30;;;;;;;;;;5072704;28;20037;-50
2022/03/20 07:48:28;;;;;;;8.30;5.45;;;;;;;;;;5072455;28;20070;-63
2022/03/20 07:50:54;;;;;;;10.15;5.20;;;;;;;;;;5072921;28;20345;-63
2022/03/20 07:53:20;;;;;;;6.53;4.43;;;;;;;;;;5072414;28;20025;-63
2022/03/20 07:55:46;;;;;;;8.38;4.95;;;;;;;;;;5072530;28;20020;-63
2022/03/20 07:58:16;;;;;;;12.25;5.50;;;;;;;;;;5072367;28;20012;-61
2022/03/20 08:00:41;;;;;;;5.93;4.47;;;;;;;;;;5072704;28;20419;-62
2022/03/20 08:03:07;;;;;;;8.38;4.47;;;;;;;;;;5073230;28;20021;-64
2022/03/20 08:05:33;;;;;;;8.23;5.20;;;;;;;;;;5071541;28;20020;-63
2022/03/20 08:08:02;;;;;;;6.95;4.90;;;;;;;;;;5071964;28;20016;-60
2022/03/20 08:10:28;;;;;;;7.07;4.80;;;;;;;;;;5071801;28;20407;-61
2022/03/20 08:12:53;;;;;;;7.13;5.03;;;;;;;;;;5072621;28;20147;-64
2022/03/20 08:15:19;;;;;;;7.03;4.53;;;;;;;;;;5072512;28;20071;-61
2022/03/20 08:17:46;;;;;;;10.63;5.22;;;;;;;;;;5072577;28;20096;-63
2022/03/20 08:20:13;;;;;;;7.22;5.05;;;;;;;;;;5071741;28;20085;-54
2022/03/20 08:22:39;;;;;;;10.73;5.88;;;;;;;;;;5071023;28;20040;-49
2022/03/20 08:25:05;;;;;;;9.40;5.25;;;;;;;;;;5070487;28;20029;-51
2022/03/20 08:27:31;;;;;;;8.10;5.07;;;;;;;;;;5070683;28;20032;-60
2022/03/20 08:29:57;;;;;;;8.27;5.63;;;;;;;;;;5072418;28;20024;-62
2022/03/20 08:32:24;;;;;;;7.72;5.82;;;;;;;;;;5072720;28;20055;-58
2022/03/20 08:34:50;;;;;;;6.55;5.38;;;;;;;;;;5072325;28;20475;-62
2022/03/20 08:37:16;;;;;;;9.35;6.15;;;;;;;;;;5072346;28;20111;-62
2022/03/20 08:39:41;;;;;;;9.77;5.95;;;;;;;;;;5072622;28;20039;-61
2022/03/20 08:42:07;;;;;;;8.98;5.22;;;;;;;;;;5072325;28;20111;-61
2022/03/20 08:44:33;;;;;;;6.82;5.22;;;;;;;;;;5072200;28;20056;-62
2022/03/20 08:46:58;;;;;;;11.32;5.82;;;;;;;;;;5072151;28;20376;-63
2022/03/20 08:49:24;;;;;;;9.18;5.95;;;;;;;;;;5072183;28;20032;-60
2022/03/20 08:51:49;;;;;;;8.63;5.43;;;;;;;;;;5072461;28;20031;-59
2022/03/20 08:54:15;;;;;;;7.72;4.90;;;;;;;;;;5072084;28;20029;-62
2022/03/20 08:56:41;;;;;;;6.65;4.78;;;;;;;;;;5072066;28;20033;-63
2022/03/20 08:59:07;;;;;;;10.23;6.28;;;;;;;;;;5074333;28;20379;-63
2022/03/20 09:01:32;;;;;;;7.68;4.60;;;;;;;;;;5075810;28;20111;-62
2022/03/20 09:03:58;;;;;;;10.13;5.53;;;;;;;;;;5076161;28;20024;-62
2022/03/20 09:06:24;;;;;;;6.13;4.05;;;;;;;;;;5076072;28;20025;-62
2022/03/20 09:08:51;;;;;;;12.30;5.78;;;;;;;;;;5076043;28;20031;-63
2022/03/20 09:11:21;;;;;;;6.40;5.28;;;;;;;;;;5075988;28;20456;-62
2022/03/20 09:13:47;;;;;;;8.57;5.68;;;;;;;;;;5075890;28;20058;-62
2022/03/20 09:19:00;;;;;;;9.32;6.18;;;;;;;;;;5076066;28;20039;-62
2022/03/20 09:21:34;;;;;;;8.15;6.05;;;;;;;;;;5074577;28;20103;-62
2022/03/20 09:24:00;;;;;;;6.75;4.72;;;;;;;;;;5074885;28;20107;-62
2022/03/20 09:26:26;;;;;;;7.78;5.57;;;;;;;;;;5075363;28;20028;-51
2022/03/20 09:28:52;;;;;;;9.52;5.75;;;;;;;;;;5075163;28;20021;-63
2022/03/20 09:31:19;;;;;;;11.13;6.28;;;;;;;;;;5075278;28;20013;-63
2022/03/20 09:33:45;;;;;;;11.32;7.30;;;;;;;;;;5075676;28;20025;-61
2022/03/20 09:36:10;;;;;;;13.05;8.32;;;;;;;;;;5075781;28;20079;-59
2022/03/20 09:38:37;;;;;;;11.50;7.38;;;;;;;;;;5057557;28;20655;-64
2022/03/20 09:41:08;;;;;;;9.07;5.82;;;;;;;;;;5075550;28;20488;-64
2022/03/20 09:43:36;;;;;;;8.52;5.75;;;;;;;;;;5075011;28;20040;-64
2022/03/20 09:46:02;;;;;;;10.60;6.50;;;;;;;;;;5072365;28;20040;-64
2022/03/20 09:48:29;;;;;;;15.45;8.65;;;;;;;;;;5075056;28;20103;-63
2022/03/20 09:50:58;;;;;;;14.80;8.30;;;;;;;;;;5074769;28;20029;-64
2022/03/20 09:53:24;;;;;;;12.15;7.35;;;;;;;;;;5075015;28;20464;-65
2022/03/20 09:55:49;;;;;;;9.23;5.15;;;;;;;;;;5075490;28;20146;-63
2022/03/20 09:58:15;;;;;;;18.67;9.10;;;;;;;;;;5075437;28;20028;-59
2022/03/20 10:00:40;;;;;;;7.60;4.85;;;;;;;;;;5074705;28;20418;-64
2022/03/20 10:03:16;;;;;;;10.55;6.38;;;;;;;;;;5074565;28;20484;-63
2022/03/20 10:05:41;;;;;;;16.98;8.50;;;;;;;;;;5073065;28;20421;-63
2022/03/20 10:08:17;;;;;;;17.05;9.43;;;;;;;;;;5075121;28;20025;-63
2022/03/20 10:10:43;;;;;;;12.95;4.78;;;;;;;;;;5074798;28;20097;-63
2022/03/20 10:13:13;;;;;;;9.43;6.07;;;;;;;;;;5075016;28;20461;-64
2022/03/20 10:15:43;;;;;;;13.40;8.38;;;;;;;;;;5074513;28;20107;-63
2022/03/20 10:18:23;;;;;;;10.55;7.50;;;;;;;;;;5074338;28;20379;-57
2022/03/20 10:21:00;;;;;;;10.02;5.68;;;;;;;;;;5074312;28;20108;-63
2022/03/20 10:23:36;;;;;;;6.07;4.22;;;;;;;;;;5074777;28;20036;-64
2022/03/20 10:26:07;;;;;;;6.43;4.60;;;;;;;;;;5074846;28;20410;-63
2022/03/20 10:28:38;;;;;;;12.95;6.95;;;;;;;;;;5074634;28;20071;-64
2022/03/20 10:31:06;;;;;;;16.65;7.00;;;;;;;;;;5074545;28;20027;-65
2022/03/20 10:33:33;;;;;;;12.27;7.82;;;;;;;;;;5074669;28;20444;-62
2022/03/20 10:36:21;;;;;;;13.25;7.05;;;;;;;;;;5073911;28;20060;-64
2022/03/20 10:38:49;;;;;;;11.75;7.15;;;;;;;;;;5073285;28;20044;-64
2022/03/20 10:41:23;;;;;;;9.40;6.40;;;;;;;;;;5073467;28;20031;-64
2022/03/20 10:43:50;;;;;;;5.18;3.85;;;;;;;;;;5073989;28;20032;-62
2022/03/20 10:46:29;;;;;;;10.48;4.72;;;;;;;;;;5074152;28;20536;-60
2022/03/20 10:48:57;;;;;;;8.30;5.80;;;;;;;;;;5074558;28;20039;-64
2022/03/20 10:51:37;;;;;;;17.42;9.43;;;;;;;;;;5074396;28;20074;-51
2022/03/20 10:54:05;;;;;;;10.55;5.10;;;;;;;;;;5073958;28;20032;-59
2022/03/20 10:56:31;;;;;;;10.43;6.65;;;;;;;;;;5074432;28;20028;-62
2022/03/20 10:58:58;;;;;;;8.57;5.05;;;;;;;;;;5068120;28;20055;-58
2022/03/20 11:01:37;;;;;;;8.95;5.90;;;;;;;;;;5073968;28;20037;-51
2022/03/20 11:04:05;;;;;;;9.65;6.50;;;;;;;;;;5073979;28;20028;-56
2022/03/20 11:06:31;;;;;;;9.93;5.40;;;;;;;;;;5073824;28;20039;-62
2022/03/20 11:08:56;;;;;;;8.77;6.20;;;;;;;;;;5073591;28;20032;-49
2022/03/20 11:11:24;;;;;;;26.00;4.43;;;;;;;;;;5073537;28;20056;-52
2022/03/20 11:13:52;;;;;;;7.88;4.38;;;;;;;;;;5073280;28;20059;-50
2022/03/20 11:16:23;;;;;;;8.38;4.80;;;;;;;;;;5073798;28;20032;-47
2022/03/20 11:18:52;;;;;;;6.28;4.45;;;;;;;;;;5073756;28;20021;-48
2022/03/20 11:21:22;;;;;;;6.78;4.43;;;;;;;;;;5073131;28;20078;-51
2022/03/20 11:23:49;;;;;;;7.93;5.22;;;;;;;;;;5073747;28;20425;-48
2022/03/20 11:26:15;;;;;;;14.07;6.03;;;;;;;;;;5073348;28;20032;-48
2022/03/20 11:28:45;;;;;;;7.68;4.30;;;;;;;;;;5073237;28;20391;-56
2022/03/20 11:31:12;;;;;;;10.00;5.78;;;;;;;;;;5073032;28;20029;-59
2022/03/20 11:33:41;;;;;;;9.02;6.75;;;;;;;;;;5072910;28;20395;-62
2022/03/20 11:36:07;;;;;;;8.98;5.20;;;;;;;;;;5071863;28;20029;-54
2022/03/20 11:38:35;;;;;;;7.10;4.60;;;;;;;;;;5071339;28;20463;-49
2022/03/20 11:41:21;;;;;;;9.02;5.60;;;;;;;;;;5073452;28;20064;-51
2022/03/20 11:44:22;;;;;;;7.93;5.68;;;;;;;;;;5073256;28;20024;-49
2022/03/20 11:47:16;;;;;;;15.63;5.57;;;;;;;;;;5073665;28;20028;-49
2022/03/20 11:49:41;;;;;;;5.47;3.83;;;;;;;;;;5072979;28;20062;-61
2022/03/20 11:52:10;;;;;;;12.00;6.57;;;;;;;;;;5072990;28;20033;-51
2022/03/20 11:54:41;;;;;;;6.95;4.63;;;;;;;;;;5073174;28;20037;-50
2022/03/20 11:57:27;;;;;;;10.23;6.80;;;;;;;;;;5073016;28;20033;-59
2022/03/20 11:59:55;;;;;;;10.60;7.07;;;;;;;;;;5062010;28;20119;-51
2022/03/20 12:02:27;;;;;;;14.45;8.50;;;;;;;;;;5072954;28;20118;-51
2022/03/20 12:05:17;;;;;;;10.05;6.43;;;;;;;;;;5055002;28;20485;-53
2022/03/20 12:08:10;;;;;;;5.95;4.10;;;;;;;;;;5073083;28;20028;-60
2022/03/20 12:11:00;;;;;;;11.02;6.47;;;;;;;;;;5073099;28;20075;-49
2022/03/20 12:13:39;;;;;;;15.80;7.18;;;;;;;;;;5072616;28;20502;-54
2022/03/20 12:16:05;;;;;;;12.20;7.95;;;;;;;;;;5072686;28;20040;-49
2022/03/20 12:19:05;;;;;;;11.50;7.93;;;;;;;;;;5072156;28;20028;-49
2022/03/20 12:21:52;;;;;;;7.93;4.45;;;;;;;;;;5072750;28;20581;-64
2022/03/20 12:24:54;;;;;;;15.30;8.00;;;;;;;;;;5072594;28;20481;-49
2022/03/20 12:27:22;;;;;;;26.90;7.85;;;;;;;;;;5023415;28;20511;-50
2022/03/20 12:29:49;;;;;;;8.32;6.18;;;;;;;;;;5072503;28;20074;-49
2022/03/20 12:32:16;;;;;;;10.85;5.85;;;;;;;;;;5072179;28;20430;-52
2022/03/20 12:35:04;;;;;;;18.85;6.97;;;;;;;;;;5072148;28;20033;-49
2022/03/20 12:37:29;;;;;;;10.10;6.43;;;;;;;;;;5061429;28;20506;-48
2022/03/20 12:40:04;;;;;;;7.75;4.97;;;;;;;;;;5072607;28;20033;-57
2022/03/20 12:42:31;;;;;;;7.72;4.32;;;;;;;;;;5072683;28;20027;-50
2022/03/20 12:44:57;;;;;;;6.78;4.75;;;;;;;;;;5072259;28;20091;-56
2022/03/20 12:47:24;;;;;;;4.47;3.60;;;;;;;;;;5072260;28;20102;-63
2022/03/20 12:50:14;;;;;;;4.93;3.95;;;;;;;;;;5072282;28;20051;-63
2022/03/20 12:52:39;;;;;;;7.90;5.78;;;;;;;;;;5049065;28;20036;-63
2022/03/20 12:55:09;;;;;;;9.02;5.25;;;;;;;;;;5072088;28;20369;-64
2022/03/20 12:57:45;;;;;;;10.70;5.85;;;;;;;;;;5072186;28;20059;-64
2022/03/20 13:00:18;;;;;;;9.82;5.93;;;;;;;;;;5054185;28;20055;-62
2022/03/20 13:03:07;;;;;;;7.25;4.45;;;;;;;;;;5072163;28;20025;-64
2022/03/20 13:05:38;;;;;;;5.18;3.72;;;;;;;;;;5072412;28;20090;-63
2022/03/20 13:08:08;;;;;;;6.95;4.68;;;;;;;;;;5072131;28;20024;-63
2022/03/20 13:10:37;;;;;;;8.10;5.33;;;;;;;;;;5072374;28;20028;-62
2022/03/20 13:13:03;;;;;;;8.27;5.10;;;;;;;;;;5072323;28;20423;-64
2022/03/20 13:15:31;;;;;;;7.32;5.65;;;;;;;;;;5072210;28;20260;-64
2022/03/20 13:17:57;;;;;;;8.68;4.80;;;;;;;;;;5071986;28;20021;-65
2022/03/20 13:20:26;;;;;;;6.97;3.67;;;;;;;;;;5072254;28;20033;-64
2022/03/20 13:22:53;;;;;;;6.30;3.88;;;;;;;;;;5072180;28;20043;-61
2022/03/20 13:25:22;;;;;;;6.75;4.65;;;;;;;;;;5071861;28;20028;-52
2022/03/20 13:27:49;;;;;;;5.95;4.13;;;;;;;;;;5072195;28;20028;-64
2022/03/20 13:30:17;;;;;;;8.05;4.70;;;;;;;;;;5071849;28;20100;-63
2022/03/20 13:32:44;;;;;;;5.90;3.88;;;;;;;;;;5071923;28;20024;-63
2022/03/20 13:35:11;;;;;;;8.88;3.30;;;;;;;;;;5071678;28;20468;-64
2022/03/20 13:37:38;;;;;;;8.02;4.03;;;;;;;;;;5072061;28;20016;-64
2022/03/20 13:40:04;;;;;;;6.00;4.03;;;;;;;;;;5072078;28;20038;-63
2022/03/20 13:42:30;;;;;;;7.43;4.28;;;;;;;;;;5071788;28;20024;-64
2022/03/20 13:44:57;;;;;;;7.75;4.75;;;;;;;;;;5073806;28;20041;-62
2022/03/20 13:47:24;;;;;;;7.15;5.15;;;;;;;;;;5075285;28;20064;-61
2022/03/20 13:49:53;;;;;;;9.55;6.35;;;;;;;;;;5075653;28;20032;-64
2022/03/20 13:52:28;;;;;;;7.60;5.70;;;;;;;;;;5075639;28;20381;-63
2022/03/20 13:55:18;;;;;;;10.18;6.38;;;;;;;;;;5075507;28;20028;-50
2022/03/20 13:58:00;;;;;;;9.63;5.57;;;;;;;;;;5075263;28;20025;-50
2022/03/20 14:00:40;;;;;;;6.78;5.18;;;;;;;;;;5075462;28;20074;-52
2022/03/20 14:03:08;;;;;;;6.63;5.13;;;;;;;;;;5075451;28;20020;-50
2022/03/20 14:05:35;;;;;;;8.18;6.10;;;;;;;;;;5075369;28;20033;-49
2022/03/20 14:08:03;;;;;;;30.95;6.93;;;;;;;;;;5075282;28;20032;-52
2022/03/20 14:10:29;;;;;;;5.10;3.85;;;;;;;;;;5074125;28;20085;-49
2022/03/20 14:13:14;;;;;;;6.93;3.78;;;;;;;;;;5073379;28;20028;-50
2022/03/20 14:15:40;;;;;;;6.45;3.38;;;;;;;;;;5074056;28;20056;-49
2022/03/20 14:18:12;;;;;;;5.88;3.50;;;;;;;;;;5074941;28;20056;-52
2022/03/20 14:20:37;;;;;;;9.02;4.50;;;;;;;;;;5071178;28;20025;-48
2022/03/20 14:23:09;;;;;;;6.45;4.07;;;;;;;;;;5074904;28;20024;-50
2022/03/20 14:25:42;;;;;;;6.03;3.75;;;;;;;;;;5074924;28;20379;-49
2022/03/20 14:28:30;;;;;;;8.63;5.28;;;;;;;;;;5074154;28;20025;-49
2022/03/20 14:39:28;;;;;;;7.25;5.07;;;;;;;;;;5074802;28;20124;-52
2022/03/20 14:41:55;;;;;;;9.10;5.40;;;;;;;;;;5056292;28;20023;-49
2022/03/20 14:44:27;;;;;;;8.68;6.75;;;;;;;;;;5074082;28;20094;-49
2022/03/20 14:46:56;;;;;;;8.77;5.28;;;;;;;;;;5074372;28;20568;-50
2022/03/20 14:49:31;;;;;;;7.28;4.63;;;;;;;;;;5074092;28;20033;-52
2022/03/20 14:51:57;;;;;;;9.52;4.82;;;;;;;;;;5074061;28;20028;-49
2022/03/20 14:54:24;;;;;;;8.68;5.70;;;;;;;;;;5074209;28;20082;-52
2022/03/20 14:56:51;;;;;;;9.05;5.28;;;;;;;;;;5073383;28;20029;-50
2022/03/20 14:59:18;;;;;;;8.55;5.57;;;;;;;;;;5074019;28;20024;-51
2022/03/20 15:01:45;;;;;;;11.85;5.85;;;;;;;;;;5073667;28;20032;-52
2022/03/20 15:04:13;;;;;;;5.70;4.05;;;;;;;;;;5073829;28;20036;-51
2022/03/20 15:06:42;;;;;;;9.13;3.72;;;;;;;;;;5073870;28;20058;-50
2022/03/20 15:11:55;;;;;;;6.72;4.30;;;;;;;;;;5074133;28;20043;-51
2022/03/20 15:14:20;;;;;;;8.95;4.85;;;;;;;;;;5073624;28;20035;-52
2022/03/20 15:16:46;;;;;;;8.27;4.90;;;;;;;;;;5073515;28;20029;-49
2022/03/20 15:19:13;;;;;;;8.40;5.15;;;;;;;;;;5073808;28;20024;-50
2022/03/20 15:21:39;;;;;;;8.80;5.15;;;;;;;;;;5073877;28;20028;-50
2022/03/20 15:24:05;;;;;;;5.22;3.60;;;;;;;;;;5073422;28;20016;-51
2022/03/20 15:26:34;;;;;;;6.43;4.60;;;;;;;;;;5073404;28;20402;-49
2022/03/20 15:29:00;;;;;;;8.85;5.70;;;;;;;;;;5073425;28;20021;-51